Alghero, Italy

11:32 AM CEST on October 24, 2014 (GMT +0200)
Fertilia | Change Station
CLOSE
Current Station
Airport
Location: Alghero,
Elevation: 75 ft
Nearby Weather Stations

Elev 75 ft 40.63 °N, 8.29 °E | Updated 12 minutes ago

Clear
Clear
70 °F
Feels Like 70 °F
N
8
Wind Variable Wind from South

Today
High -- | Low -- °F
--% Chance of Precip.
Yesterday
High -- | Low -- °F
Precip. -- in
7:47 AM 6:33 PM
New Moon, 0% visible
Pressure 29.98 in
Visibility -9999.0 miles
Clouds
Dew Point 59 °F
Humidity 68%
Rainfall 0.00 in
Snow Depth Not available.
UV Not available.
Pollen Not available.
Air Quality Not available.
Flu Activity Not available.
METAR LIEA 240920Z 19007KT CAVOK 21/15 Q1015

More Conditions Fewer Conditions

Pressure 29.98 in
Visibility -9999.0 miles
Clouds
Dew Point 59 °F
Humidity 68%
Rainfall 0.00 in
Snow Depth Not available.
UV Not available.
Pollen Not available.
Air Quality Not available.
Flu Activity Not available.
METAR LIEA 240920Z 19007KT CAVOK 21/15 Q1015

More Conditions Fewer Conditions

10-Day Weather Forecast

Almanac

Astronomy

Oct. 24, 2014 Rise Set
Actual Time 7:47 AM CEST 6:33 PM CEST
Civil Twilight 7:19 AM CEST 7:01 PM CEST
Nautical Twilight 6:47 AM CEST 7:33 PM CEST
Astronomical Twilight 6:16 AM CEST 8:05 PM CEST
Moon 8:10 AM CEST 7:02 PM CEST
Length Of Visible Light 11h 42m
Length of Day
10h 46m
Tomorrow will be 2m 29s shorter.
New Moon, 0% of the Moon is Illuminated
Today
New Moon
Oct 30
First Quarter
Nov 6
Full
Nov 14
Last Quarter
Nov 22
New

Yesterday's Extremes

Country Highs Country Lows

Community

WunderPhotos

Upload Photos

1,764,513 photos uploaded!

WunderBlogs® & News

Nearby

Snow Depth

Not available.

Earthquake Activity

City Distance Mag. Time & Date
No recent earthquake activity has been reported nearby.
Minimum magnitude displayed is 2.5.

Coastal Water Temperatures

Place Temperature
No Stations Reporting

Nearby Weather Stations